Time;durP1;ratioP1;P1;durP2;ratioP2;P2;SDS_P1;SDS_P2;PMS_P1;PMS_P2;Temp;Humidity;BMP_temperature;BMP_pressure;BME280_temperature;BME280_humidity;BME280_pressure;Samples;Min_cycle;Max_cycle;Signal;HPM_P1;HPM_P2
2022/08/03 00:01:06;;;;;;;1.00;0.80;;;22.70;1.00;;;;;;5157877;27;20450;-73
2022/08/03 00:03:34;;;;;;;0.80;0.67;;;22.60;1.00;;;;;;5158087;27;20483;-72
2022/08/03 00:06:01;;;;;;;1.33;0.80;;;22.60;1.00;;;;;;5157457;27;20474;-72
2022/08/03 00:08:28;;;;;;;1.17;0.60;;;22.60;1.00;;;;;;5157570;27;20502;-72
2022/08/03 00:10:54;;;;;;;0.80;0.63;;;22.60;1.00;;;;;;5157386;27;20552;-72
2022/08/03 00:13:21;;;;;;;0.60;0.50;;;22.60;1.00;;;;;;5157046;27;20490;-71
2022/08/03 00:15:48;;;;;;;1.00;0.67;;;22.60;1.00;;;;;;5157626;27;20486;-73
2022/08/03 00:18:17;;;;;;;3.03;0.90;;;22.60;1.00;;;;;;5157386;27;20749;-72
2022/08/03 00:20:44;;;;;;;1.00;0.73;;;22.70;1.00;;;;;;5157745;27;20450;-72
2022/08/03 00:23:11;;;;;;;0.80;0.70;;;22.60;1.00;;;;;;5157556;27;20796;-72
2022/08/03 00:25:39;;;;;;;1.03;0.80;;;22.60;1.00;;;;;;5157240;27;20993;-71
2022/08/03 00:28:06;;;;;;;1.13;0.87;;;22.50;1.00;;;;;;5156136;27;20491;-72
2022/08/03 00:30:34;;;;;;;1.00;0.70;;;22.40;1.00;;;;;;5155661;27;20953;-72
2022/08/03 00:33:01;;;;;;;0.90;0.70;;;22.40;1.00;;;;;;5157358;27;20945;-72
2022/08/03 00:35:30;;;;;;;1.00;0.80;;;22.30;1.00;;;;;;5157233;27;20529;-72
2022/08/03 00:37:57;;;;;;;0.80;0.67;;;22.30;1.00;;;;;;5157473;27;20474;-72
2022/08/03 00:40:24;;;;;;;1.37;1.27;;;22.20;1.00;;;;;;5157354;27;20492;-72
2022/08/03 00:42:53;;;;;;;1.00;0.80;;;22.20;1.00;;;;;;5156966;27;20531;-73
2022/08/03 00:45:21;;;;;;;0.90;0.70;;;22.20;1.00;;;;;;5155520;27;20549;-72
2022/08/03 00:47:49;;;;;;;0.70;0.60;;;22.20;1.00;;;;;;5155668;27;20554;-71
2022/08/03 00:50:16;;;;;;;2.30;0.70;;;22.30;1.00;;;;;;5155235;27;20446;-72
2022/08/03 00:52:46;;;;;;;0.87;0.70;;;22.40;1.00;;;;;;5155304;27;20482;-72
2022/08/03 00:55:13;;;;;;;0.90;0.70;;;22.30;1.00;;;;;;5154972;27;20435;-72
2022/08/03 00:57:40;;;;;;;0.90;0.70;;;22.30;1.00;;;;;;5158327;27;20877;-71
2022/08/03 01:00:09;;;;;;;0.93;0.70;;;22.30;1.00;;;;;;5160550;27;20470;-72
2022/08/03 01:02:36;;;;;;;1.50;0.70;;;22.20;1.00;;;;;;5160370;27;20945;-72
2022/08/03 01:05:04;;;;;;;0.90;0.67;;;22.20;1.00;;;;;;5160324;27;20535;-72
2022/08/03 01:07:52;;;;;;;1.10;0.73;;;22.20;1.00;;;;;;5159900;27;20545;-72
2022/08/03 01:10:28;;;;;;;0.90;0.70;;;22.30;1.00;;;;;;5159333;27;20451;-72
2022/08/03 01:13:09;;;;;;;0.87;0.67;;;22.30;1.00;;;;;;5159007;27;20502;-73
2022/08/03 01:15:43;;;;;;;1.40;0.70;;;22.20;1.00;;;;;;5159304;27;20478;-72
2022/08/03 01:18:17;;;;;;;0.90;0.60;;;22.10;1.00;;;;;;5159687;27;20451;-72
2022/08/03 01:20:47;;;;;;;0.90;0.70;;;22.00;1.00;;;;;;5159978;27;20811;-74
2022/08/03 01:23:34;;;;;;;1.00;0.80;;;21.90;1.00;;;;;;5160460;27;20974;-72
2022/08/03 01:26:11;;;;;;;0.93;0.70;;;21.80;2.90;;;;;;5160515;27;20550;-72
2022/08/03 01:29:04;;;;;;;1.00;0.70;;;21.80;44.60;;;;;;5160605;27;20898;-72
2022/08/03 01:31:40;;;;;;;1.60;0.70;;;21.80;91.30;;;;;;5160170;27;20808;-73
2022/08/03 01:34:12;;;;;;;0.80;0.63;;;21.80;99.70;;;;;;5160924;27;20466;-73
2022/08/03 01:36:44;;;;;;;0.80;0.70;;;21.80;99.90;;;;;;5161267;27;20450;-73
2022/08/03 01:39:12;;;;;;;0.90;0.63;;;21.80;99.90;;;;;;5162948;27;20534;-73
2022/08/03 01:41:44;;;;;;;1.03;0.80;;;21.70;99.90;;;;;;5161948;27;20476;-72
2022/08/03 01:44:13;;;;;;;1.00;0.70;;;21.80;99.90;;;;;;5161808;27;20797;-71
2022/08/03 01:46:47;;;;;;;0.80;0.70;;;21.90;99.90;;;;;;5161731;27;20522;-72
2022/08/03 01:49:16;;;;;;;1.10;0.80;;;21.90;74.20;;;;;;5163188;27;20452;-72
2022/08/03 01:51:45;;;;;;;1.10;0.70;;;21.90;93.30;;;;;;5162393;27;20754;-72
2022/08/03 01:54:14;;;;;;;1.10;0.70;;;21.90;87.10;;;;;;5161648;27;20483;-71
2022/08/03 01:56:43;;;;;;;1.43;0.90;;;21.90;75.80;;;;;;5161039;27;20477;-73
2022/08/03 01:59:14;;;;;;;1.00;0.70;;;21.90;72.10;;;;;;5160829;27;20439;-72
2022/08/03 02:01:43;;;;;;;1.20;0.90;;;21.80;69.50;;;;;;5160734;27;20443;-73
2022/08/03 02:04:12;;;;;;;0.97;0.70;;;21.80;95.00;;;;;;5159646;27;20486;-72
2022/08/03 02:06:40;;;;;;;1.20;0.80;;;21.80;99.90;;;;;;5160097;27;20521;-71
2022/08/03 02:09:08;;;;;;;0.90;0.70;;;21.80;99.90;;;;;;5158981;27;20534;-72
2022/08/03 02:11:36;;;;;;;2.70;1.00;;;21.70;99.90;;;;;;5159884;27;20518;-72
2022/08/03 02:14:06;;;;;;;1.53;1.00;;;21.70;99.90;;;;;;5158102;27;20499;-71
2022/08/03 02:16:35;;;;;;;1.30;0.90;;;21.60;99.90;;;;;;5158303;27;20612;-71
2022/08/03 02:19:05;;;;;;;1.17;0.80;;;21.60;99.90;;;;;;5158357;27;20443;-72
2022/08/03 02:21:36;;;;;;;0.93;0.70;;;21.60;99.90;;;;;;5158107;27;20455;-72
2022/08/03 02:24:05;;;;;;;1.00;0.80;;;21.60;99.90;;;;;;5158328;27;20439;-72
2022/08/03 02:26:33;;;;;;;1.30;0.60;;;21.60;99.90;;;;;;5158320;27;20971;-72
2022/08/03 02:29:06;;;;;;;0.93;0.70;;;21.70;99.90;;;;;;5159780;27;20495;-71
2022/08/03 02:31:36;;;;;;;1.00;0.70;;;21.70;99.90;;;;;;5159383;27;20450;-72
2022/08/03 02:34:09;;;;;;;1.73;1.00;;;21.70;99.90;;;;;;5159184;27;20503;-71
2022/08/03 02:36:40;;;;;;;1.10;0.70;;;21.70;99.90;;;;;;5158851;27;20733;-72
2022/08/03 02:39:11;;;;;;;0.70;0.67;;;21.60;99.90;;;;;;5159274;27;20545;-72
2022/08/03 02:41:43;;;;;;;0.80;0.70;;;21.60;99.90;;;;;;5159381;27;20583;-72
2022/08/03 02:44:12;;;;;;;0.93;0.70;;;21.50;99.90;;;;;;5158767;27;20528;-72
2022/08/03 02:46:43;;;;;;;1.30;0.70;;;21.40;99.90;;;;;;5159271;27;20953;-72
2022/08/03 02:49:13;;;;;;;1.03;0.70;;;21.40;99.90;;;;;;5159050;27;20889;-71
2022/08/03 02:51:43;;;;;;;0.90;0.73;;;21.40;99.90;;;;;;5158399;27;20490;-72
2022/08/03 02:54:11;;;;;;;1.00;0.70;;;21.40;99.90;;;;;;5158861;27;20533;-72
2022/08/03 02:56:39;;;;;;;1.07;0.73;;;21.30;99.90;;;;;;5158780;27;20446;-72
2022/08/03 02:59:06;;;;;;;1.40;1.20;;;21.30;1.00;;;;;;5158622;27;20486;-72
2022/08/03 03:01:34;;;;;;;1.20;0.90;;;21.40;1.00;;;;;;5158524;27;20542;-72
2022/08/03 03:04:01;;;;;;;1.17;0.80;;;21.40;99.90;;;;;;5158778;27;20443;-73
2022/08/03 03:06:28;;;;;;;1.40;0.73;;;21.40;99.90;;;;;;5158381;27;20539;-72
2022/08/03 03:08:58;;;;;;;0.73;0.70;;;21.40;99.90;;;;;;5158770;27;20538;-72
2022/08/03 03:11:26;;;;;;;1.00;0.80;;;21.30;99.90;;;;;;5158379;27;20843;-72
2022/08/03 03:13:54;;;;;;;1.33;0.80;;;21.30;1.00;;;;;;5158316;27;20439;-72
2022/08/03 03:16:22;;;;;;;3.60;0.77;;;21.30;1.00;;;;;;5158263;27;20898;-72
2022/08/03 03:18:50;;;;;;;1.20;0.80;;;21.30;1.00;;;;;;5158283;27;20458;-72
2022/08/03 03:21:19;;;;;;;1.30;0.70;;;21.20;1.00;;;;;;5157924;27;20810;-72
2022/08/03 03:23:47;;;;;;;1.07;0.70;;;21.10;1.00;;;;;;5158426;27;20438;-72
2022/08/03 03:26:16;;;;;;;0.97;0.77;;;21.10;1.00;;;;;;5158161;27;20482;-72
2022/08/03 03:28:43;;;;;;;2.30;0.90;;;21.10;1.00;;;;;;5158233;27;20538;-71
2022/08/03 03:31:11;;;;;;;1.00;0.80;;;21.10;1.00;;;;;;5158137;27;20458;-72
2022/08/03 03:33:39;;;;;;;1.40;0.97;;;21.10;1.00;;;;;;5155986;27;20533;-71
2022/08/03 03:36:07;;;;;;;2.60;0.80;;;21.10;9.10;;;;;;5156499;27;20447;-72
2022/08/03 03:38:34;;;;;;;0.97;0.80;;;21.10;1.00;;;;;;5157125;27;20486;-72
2022/08/03 03:41:01;;;;;;;1.00;0.80;;;21.10;1.00;;;;;;5157791;27;20486;-72
2022/08/03 03:43:30;;;;;;;1.20;0.80;;;21.10;1.00;;;;;;5156633;27;20447;-72
2022/08/03 03:45:58;;;;;;;0.97;0.87;;;21.00;99.90;;;;;;5156713;27;20447;-72
2022/08/03 03:48:26;;;;;;;1.00;0.80;;;21.00;99.90;;;;;;5157522;27;20886;-72
2022/08/03 03:50:53;;;;;;;1.10;0.80;;;21.00;99.90;;;;;;5157712;27;20870;-73
2022/08/03 03:53:20;;;;;;;1.07;0.77;;;21.00;99.90;;;;;;5156718;27;20937;-72
2022/08/03 03:55:47;;;;;;;1.27;0.87;;;21.00;99.90;;;;;;5157462;27;20521;-72
2022/08/03 03:58:14;;;;;;;1.37;0.80;;;21.00;99.90;;;;;;5157673;27;20832;-72
2022/08/03 04:00:44;;;;;;;0.97;0.87;;;20.90;1.00;;;;;;5157871;27;20917;-73
2022/08/03 04:03:11;;;;;;;1.00;0.80;;;20.90;1.00;;;;;;5157795;27;20447;-73
2022/08/03 04:11:14;;;;;;;1.17;0.80;;;20.80;1.00;;;;;;5155653;27;20938;-71
2022/08/03 04:13:44;;;;;;;1.40;0.83;;;20.90;7.00;;;;;;5155636;27;20828;-70
2022/08/03 04:16:16;;;;;;;1.73;0.80;;;21.10;1.00;;;;;;5157058;27;20500;-73
2022/08/03 04:18:47;;;;;;;1.10;0.90;;;21.20;99.90;;;;;;5156885;27;20481;-73
2022/08/03 04:21:16;;;;;;;0.80;0.70;;;21.30;99.90;;;;;;5154717;27;20735;-73
2022/08/03 04:23:48;;;;;;;0.97;0.83;;;21.30;99.90;;;;;;5157590;27;20756;-73
2022/08/03 04:26:19;;;;;;;0.87;0.70;;;21.30;99.90;;;;;;5156569;27;20924;-72
2022/08/03 04:28:48;;;;;;;1.00;0.80;;;21.30;99.90;;;;;;5156882;27;20470;-72
2022/08/03 04:31:17;;;;;;;1.00;0.80;;;21.40;99.90;;;;;;5156151;27;20680;-73
2022/08/03 04:33:46;;;;;;;2.50;0.90;;;21.50;66.70;;;;;;5156383;27;20442;-72
2022/08/03 04:36:17;;;;;;;0.93;0.80;;;21.50;53.00;;;;;;5157185;27;20474;-74
2022/08/03 04:38:54;;;;;;;1.90;0.90;;;21.50;99.90;;;;;;5156943;27;20513;-71
2022/08/03 04:41:24;;;;;;;2.13;1.00;;;21.40;99.90;;;;;;5134883;27;20500;-72
2022/08/03 04:43:55;;;;;;;1.30;1.20;;;21.40;99.90;;;;;;5142224;27;20514;-71
2022/08/03 04:46:26;;;;;;;1.10;0.87;;;21.30;99.90;;;;;;5149630;27;20522;-72
2022/08/03 04:48:54;;;;;;;1.00;0.90;;;21.30;99.90;;;;;;5134050;27;20498;-72
2022/08/03 04:51:21;;;;;;;2.37;0.87;;;21.30;1.00;;;;;;5137159;27;20463;-72
2022/08/03 04:53:48;;;;;;;2.03;0.97;;;21.30;1.00;;;;;;5138960;27;20431;-73
2022/08/03 04:56:16;;;;;;;1.53;0.97;;;21.20;99.90;;;;;;5137753;27;20502;-72
2022/08/03 04:58:44;;;;;;;2.37;1.20;;;21.20;1.00;;;;;;5139852;27;20522;-74
2022/08/03 05:01:11;;;;;;;1.23;1.00;;;21.20;99.90;;;;;;5137142;27;20493;-72
2022/08/03 05:03:40;;;;;;;1.83;1.17;;;21.20;1.00;;;;;;5139514;27;20444;-74
2022/08/03 05:06:08;;;;;;;1.33;1.00;;;21.20;1.00;;;;;;5125355;27;20464;-73
2022/08/03 05:08:36;;;;;;;1.33;1.00;;;21.30;99.90;;;;;;5137429;27;20530;-73
2022/08/03 05:11:03;;;;;;;1.20;1.00;;;21.30;99.90;;;;;;5138058;27;20554;-72
2022/08/03 05:13:30;;;;;;;1.40;1.10;;;21.40;99.90;;;;;;5139017;27;20448;-72
2022/08/03 05:15:57;;;;;;;1.47;1.10;;;21.40;1.00;;;;;;5134628;27;20487;-72
2022/08/03 05:18:24;;;;;;;1.73;1.07;;;21.30;1.00;;;;;;5137522;27;20524;-73
2022/08/03 05:20:53;;;;;;;1.30;1.10;;;21.30;1.00;;;;;;5138091;27;20527;-73
2022/08/03 05:23:20;;;;;;;2.80;1.10;;;21.30;1.00;;;;;;5137078;27;20957;-73
2022/08/03 05:25:47;;;;;;;1.77;1.10;;;21.20;9.40;;;;;;5135105;27;20460;-74
2022/08/03 05:28:14;;;;;;;2.07;1.10;;;21.20;99.90;;;;;;5137178;27;20506;-73
2022/08/03 05:30:41;;;;;;;1.90;1.03;;;21.20;1.00;;;;;;5135948;27;20467;-72
2022/08/03 05:33:09;;;;;;;1.47;1.00;;;21.30;26.10;;;;;;5130365;27;21072;-72
2022/08/03 05:35:38;;;;;;;1.10;0.90;;;21.30;1.00;;;;;;5112029;27;20984;-73
2022/08/03 05:38:06;;;;;;;1.20;0.93;;;21.40;99.90;;;;;;5131749;27;20985;-73
2022/08/03 05:40:34;;;;;;;1.20;0.90;;;21.40;99.90;;;;;;5134683;27;20472;-74
2022/08/03 05:43:04;;;;;;;3.13;1.30;;;21.50;93.80;;;;;;5135618;27;20459;-71
2022/08/03 05:45:31;;;;;;;0.90;0.80;;;21.50;1.00;;;;;;5136702;27;20940;-72
2022/08/03 05:47:59;;;;;;;1.10;0.87;;;21.50;1.00;;;;;;5135537;27;20515;-72
2022/08/03 05:50:26;;;;;;;1.00;0.80;;;21.70;1.00;;;;;;5135713;27;20530;-73
2022/08/03 05:52:56;;;;;;;0.80;0.70;;;21.70;1.00;;;;;;5127574;27;20456;-72
2022/08/03 05:55:24;;;;;;;1.00;0.70;;;21.80;99.90;;;;;;5131428;27;20513;-73
2022/08/03 05:57:51;;;;;;;2.27;0.80;;;21.80;99.90;;;;;;5124035;27;20481;-73
2022/08/03 06:00:19;;;;;;;0.90;0.70;;;21.90;99.90;;;;;;5131594;27;20531;-74
2022/08/03 06:02:46;;;;;;;1.07;0.80;;;22.00;25.90;;;;;;5132982;27;20838;-73
2022/08/03 06:05:12;;;;;;;1.47;0.77;;;22.10;1.00;;;;;;5135954;27;20534;-73
2022/08/03 06:07:39;;;;;;;1.10;0.80;;;22.20;1.00;;;;;;5136158;27;20546;-74
2022/08/03 06:10:08;;;;;;;1.20;0.90;;;22.20;1.00;;;;;;5137230;27;21053;-74
2022/08/03 06:12:36;;;;;;;1.83;0.80;;;22.30;1.00;;;;;;5136145;27;20492;-73
2022/08/03 06:15:03;;;;;;;0.90;0.70;;;22.40;1.00;;;;;;5136923;27;20725;-73
2022/08/03 06:17:30;;;;;;;1.30;0.70;;;22.40;1.00;;;;;;5136794;27;20904;-73
2022/08/03 06:19:57;;;;;;;1.03;0.80;;;22.50;1.00;;;;;;5134417;27;20945;-73
2022/08/03 06:22:25;;;;;;;0.70;0.57;;;22.60;1.00;;;;;;5137177;27;20618;-73
2022/08/03 06:24:51;;;;;;;1.83;0.80;;;22.70;1.00;;;;;;5131116;27;20459;-73
2022/08/03 06:27:19;;;;;;;1.27;0.70;;;22.70;1.00;;;;;;5133853;27;20547;-73
2022/08/03 06:29:47;;;;;;;0.90;0.80;;;22.80;1.00;;;;;;5141027;27;20462;-73
2022/08/03 06:32:15;;;;;;;1.20;0.87;;;22.80;1.00;;;;;;5133807;27;20521;-73
2022/08/03 06:34:42;;;;;;;0.90;0.67;;;22.90;1.00;;;;;;5133907;27;20470;-73
2022/08/03 06:37:09;;;;;;;1.00;0.90;;;23.00;1.00;;;;;;5135946;27;20505;-74
2022/08/03 06:39:36;;;;;;;2.13;0.80;;;23.10;1.00;;;;;;5130617;27;20535;-72
2022/08/03 06:42:03;;;;;;;1.93;1.00;;;23.20;1.00;;;;;;5128831;27;20495;-72
2022/08/03 06:44:30;;;;;;;0.93;0.70;;;23.30;1.00;;;;;;5129347;27;20542;-72
2022/08/03 06:46:59;;;;;;;1.03;0.90;;;23.30;99.90;;;;;;5133135;27;20889;-71
2022/08/03 06:49:26;;;;;;;1.17;0.80;;;23.50;99.90;;;;;;5124910;27;20509;-71
2022/08/03 06:51:53;;;;;;;1.40;0.80;;;23.50;99.90;;;;;;5131634;27;20460;-71
2022/08/03 06:54:23;;;;;;;1.83;0.80;;;23.60;99.90;;;;;;5133509;27;20446;-72
2022/08/03 06:56:50;;;;;;;0.90;0.77;;;23.70;99.90;;;;;;5134759;27;20451;-72
2022/08/03 06:59:17;;;;;;;0.93;0.67;;;23.90;99.90;;;;;;5135472;27;20463;-72
2022/08/03 07:01:44;;;;;;;1.00;0.70;;;23.90;99.90;;;;;;5130409;27;20536;-74
2022/08/03 07:04:12;;;;;;;0.93;0.63;;;24.00;99.90;;;;;;5129086;27;20513;-75
2022/08/03 07:06:39;;;;;;;2.10;0.80;;;24.10;99.90;;;;;;5134369;27;20503;-75
2022/08/03 07:09:06;;;;;;;1.27;0.80;;;24.30;99.90;;;;;;5116922;27;20932;-75
2022/08/03 07:11:33;;;;;;;0.90;0.80;;;24.40;99.90;;;;;;5113908;28;20485;-75
2022/08/03 07:14:00;;;;;;;1.00;0.70;;;24.50;55.50;;;;;;5114864;28;20803;-75
2022/08/03 07:16:27;;;;;;;1.23;0.63;;;24.60;17.00;;;;;;5114459;27;20499;-74
2022/08/03 07:18:55;;;;;;;1.00;0.70;;;24.70;3.40;;;;;;5129552;27;20849;-75
2022/08/03 07:21:24;;;;;;;0.80;0.60;;;24.80;1.00;;;;;;5134467;27;20466;-75
2022/08/03 07:23:51;;;;;;;1.93;0.90;;;24.80;1.00;;;;;;5135439;27;20543;-76
2022/08/03 07:26:18;;;;;;;0.60;0.60;;;24.90;1.00;;;;;;5116385;27;20460;-75
2022/08/03 07:28:45;;;;;;;1.30;0.70;;;25.00;1.00;;;;;;5127474;27;20515;-75
2022/08/03 07:31:12;;;;;;;0.60;0.43;;;25.10;1.00;;;;;;5134352;27;20933;-75
2022/08/03 07:33:40;;;;;;;0.90;0.60;;;25.10;1.00;;;;;;5126432;27;20484;-76
2022/08/03 07:36:07;;;;;;;1.07;0.60;;;25.20;1.00;;;;;;5115307;27;20456;-76
2022/08/03 07:38:36;;;;;;;1.57;0.60;;;25.30;1.00;;;;;;5131816;27;20452;-76
2022/08/03 07:41:03;;;;;;;1.07;0.50;;;25.40;1.00;;;;;;5135074;27;20450;-76
2022/08/03 07:43:31;;;;;;;1.57;0.70;;;25.50;1.00;;;;;;5133085;27;20551;-75
2022/08/03 07:45:58;;;;;;;3.23;0.70;;;25.70;1.00;;;;;;5129395;27;20454;-74
2022/08/03 07:48:25;;;;;;;2.10;0.70;;;25.80;1.00;;;;;;5121937;27;21055;-75
2022/08/03 07:50:52;;;;;;;0.70;0.50;;;25.90;1.00;;;;;;5110211;28;20955;-75
2022/08/03 07:53:19;;;;;;;0.50;0.43;;;26.00;1.00;;;;;;5111897;28;20665;-73
2022/08/03 07:55:48;;;;;;;0.70;0.50;;;26.20;1.00;;;;;;5112481;27;20533;-76
2022/08/03 07:58:18;;;;;;;0.63;0.50;;;26.20;1.00;;;;;;5106040;28;21771;-76
2022/08/03 08:00:45;;;;;;;1.13;0.50;;;26.40;1.00;;;;;;5135842;28;20458;-75
2022/08/03 08:03:14;;;;;;;0.90;0.50;;;26.50;1.00;;;;;;5134828;28;20867;-75
2022/08/03 08:05:41;;;;;;;0.53;0.40;;;26.50;1.00;;;;;;5132182;27;20900;-74
2022/08/03 08:08:09;;;;;;;0.60;0.50;;;26.60;1.00;;;;;;5135202;27;20483;-76
2022/08/03 08:10:37;;;;;;;0.50;0.40;;;26.70;1.00;;;;;;5138890;27;20451;-74
2022/08/03 08:13:05;;;;;;;0.53;0.40;;;26.80;1.00;;;;;;5135805;27;20483;-75
2022/08/03 08:15:33;;;;;;;0.73;0.50;;;26.80;1.00;;;;;;5132116;27;20507;-76
2022/08/03 08:18:02;;;;;;;0.70;0.50;;;26.90;1.00;;;;;;5133806;27;20456;-76
2022/08/03 08:20:31;;;;;;;1.43;0.40;;;26.90;1.00;;;;;;5135992;27;20460;-76
2022/08/03 08:23:01;;;;;;;0.50;0.30;;;27.00;1.00;;;;;;5131019;27;20452;-75
2022/08/03 08:25:31;;;;;;;0.60;0.40;;;27.00;1.00;;;;;;5136823;27;20448;-75
2022/08/03 08:28:01;;;;;;;0.50;0.30;;;27.10;1.00;;;;;;5137586;27;20603;-76
2022/08/03 08:30:31;;;;;;;0.60;0.40;;;27.10;1.00;;;;;;5117115;27;20455;-75
2022/08/03 08:32:59;;;;;;;0.40;0.30;;;27.10;1.00;;;;;;5137625;27;20547;-75
2022/08/03 08:35:26;;;;;;;0.73;0.40;;;27.20;1.00;;;;;;5138191;27;20450;-76
2022/08/03 08:37:54;;;;;;;1.30;0.50;;;27.20;1.00;;;;;;5136379;27;20455;-76
2022/08/03 08:40:22;;;;;;;0.63;0.40;;;27.30;1.00;;;;;;5136466;27;20489;-75
2022/08/03 08:42:52;;;;;;;0.70;0.43;;;27.50;1.00;;;;;;5132256;27;20570;-77
2022/08/03 08:45:29;;;;;;;0.50;0.30;;;27.60;1.00;;;;;;5119312;27;20460;-76
2022/08/03 08:48:03;;;;;;;0.77;0.40;;;27.70;1.00;;;;;;5119704;27;20479;-78
2022/08/03 08:50:31;;;;;;;0.50;0.33;;;27.70;1.00;;;;;;5137117;27;20467;-76
2022/08/03 08:53:03;;;;;;;0.60;0.50;;;27.70;1.00;;;;;;5137325;27;20554;-77
2022/08/03 08:55:33;;;;;;;0.70;0.47;;;27.80;1.00;;;;;;5130708;27;21062;-76
2022/08/03 08:58:05;;;;;;;0.60;0.50;;;27.90;1.00;;;;;;5135480;27;20768;-75
2022/08/03 09:00:33;;;;;;;0.70;0.40;;;27.90;1.00;;;;;;5137517;27;20542;-76
2022/08/03 09:03:03;;;;;;;0.50;0.40;;;28.00;1.00;;;;;;5132469;27;20464;-74
2022/08/03 09:05:33;;;;;;;0.50;0.40;;;28.00;1.00;;;;;;5135554;27;20455;-74
2022/08/03 09:08:00;;;;;;;1.13;0.60;;;28.20;1.00;;;;;;5137545;27;20525;-75
2022/08/03 09:10:29;;;;;;;0.57;0.40;;;28.30;1.00;;;;;;5135389;27;20445;-75
2022/08/03 09:12:56;;;;;;;1.57;0.47;;;28.40;1.00;;;;;;5131724;27;20514;-74
2022/08/03 09:15:30;;;;;;;0.60;0.40;;;28.40;1.00;;;;;;5113217;27;20538;-74
2022/08/03 09:17:59;;;;;;;0.60;0.47;;;28.40;1.00;;;;;;5135063;27;20473;-74
2022/08/03 09:20:33;;;;;;;1.60;0.40;;;28.50;1.00;;;;;;5135097;27;20830;-74
2022/08/03 09:23:03;;;;;;;2.60;0.50;;;28.40;1.00;;;;;;5126246;27;20508;-73
2022/08/03 09:25:33;;;;;;;0.87;0.40;;;28.30;1.00;;;;;;5127600;27;20850;-73
2022/08/03 09:28:07;;;;;;;0.75;0.50;;;28.40;1.00;;;;;;5130902;27;20775;-75
2022/08/03 09:30:34;;;;;;;1.53;0.40;;;28.50;1.00;;;;;;5135404;27;20206;-75
2022/08/03 09:33:03;;;;;;;0.70;0.40;;;28.80;1.00;;;;;;5133932;27;20505;-73
2022/08/03 09:35:32;;;;;;;1.27;0.40;;;29.20;1.00;;;;;;5134390;27;20517;-75
2022/08/03 09:38:13;;;;;;;0.50;0.30;;;29.40;1.00;;;;;;5133614;27;20447;-75
2022/08/03 09:40:44;;;;;;;0.53;0.40;;;29.60;1.00;;;;;;5128863;27;20452;-74
2022/08/03 09:43:13;;;;;;;0.63;0.40;;;29.80;1.00;;;;;;5119900;27;20550;-74
2022/08/03 09:45:41;;;;;;;0.50;0.40;;;29.90;1.00;;;;;;5132205;27;20890;-73
2022/08/03 09:48:26;;;;;;;0.50;0.30;;;29.90;1.00;;;;;;5134482;27;20525;-73
2022/08/03 09:50:59;;;;;;;0.50;0.33;;;29.90;1.00;;;;;;5122553;27;20512;-76
2022/08/03 09:53:28;;;;;;;0.57;0.40;;;30.20;1.00;;;;;;5113039;27;20458;-76
2022/08/03 09:55:56;;;;;;;0.50;0.30;;;30.30;1.00;;;;;;5136547;27;20446;-76
2022/08/03 09:58:25;;;;;;;0.57;0.37;;;30.40;1.00;;;;;;5135103;27;20454;-76
2022/08/03 10:00:55;;;;;;;0.50;0.40;;;30.40;1.00;;;;;;5132963;27;20515;-75
2022/08/03 10:03:23;;;;;;;6.60;0.40;;;30.40;1.00;;;;;;5131132;27;20190;-75
2022/08/03 10:05:50;;;;;;;0.50;0.40;;;30.10;1.00;;;;;;5128426;27;20550;-75
2022/08/03 10:08:21;;;;;;;0.50;0.40;;;30.20;1.00;;;;;;5147653;27;20847;-74
2022/08/03 10:10:50;;;;;;;1.17;0.47;;;30.40;1.00;;;;;;5131399;27;20463;-76
2022/08/03 10:13:20;;;;;;;0.60;0.37;;;30.60;1.00;;;;;;5108358;27;20486;-76
2022/08/03 10:15:48;;;;;;;1.33;1.23;;;30.60;1.00;;;;;;5132166;27;20460;-76
2022/08/03 10:18:15;;;;;;;0.60;0.40;;;30.60;1.00;;;;;;5134461;27;20460;-73
2022/08/03 10:20:48;;;;;;;0.70;0.40;;;30.60;1.00;;;;;;5141661;27;21034;-77
2022/08/03 10:23:18;;;;;;;0.50;0.40;;;30.70;1.00;;;;;;5117597;27;20448;-76
2022/08/03 10:25:55;;;;;;;0.50;0.30;;;31.00;1.00;;;;;;5125103;27;20519;-75
2022/08/03 10:28:32;;;;;;;0.50;0.40;;;31.30;1.00;;;;;;5124351;27;20594;-72
2022/08/03 10:30:59;;;;;;;0.60;0.40;;;31.40;1.00;;;;;;5125276;27;20448;-73
2022/08/03 10:33:31;;;;;;;0.50;0.37;;;31.60;1.00;;;;;;5128181;27;20902;-74
2022/08/03 10:36:00;;;;;;;0.60;0.40;;;32.00;1.00;;;;;;5126567;27;20509;-74
2022/08/03 10:38:34;;;;;;;0.67;0.40;;;32.40;1.00;;;;;;5136801;27;20907;-75
2022/08/03 10:41:06;;;;;;;1.40;0.40;;;32.70;1.00;;;;;;5126514;27;20453;-74
2022/08/03 10:43:43;;;;;;;0.93;0.40;;;33.00;1.00;;;;;;5137373;27;20491;-73
2022/08/03 10:46:11;;;;;;;0.70;0.60;;;33.00;1.00;;;;;;5122764;27;20522;-74
2022/08/03 10:48:40;;;;;;;0.47;0.30;;;33.30;1.00;;;;;;5122954;27;20476;-74
2022/08/03 10:51:07;;;;;;;0.60;0.47;;;33.10;1.00;;;;;;5123947;27;20729;-75
2022/08/03 10:53:37;;;;;;;0.60;0.40;;;32.90;1.00;;;;;;5142149;27;20464;-76
2022/08/03 10:59:59;;;;;;;0.60;0.40;;;33.10;1.00;;;;;;5132551;27;20450;-75
2022/08/03 11:02:59;;;;;;;0.70;0.40;;;33.30;1.00;;;;;;5126806;27;20804;-73
2022/08/03 11:05:28;;;;;;;0.60;0.40;;;33.50;1.00;;;;;;5124339;27;20463;-73
2022/08/03 11:08:20;;;;;;;0.50;0.40;;;33.60;1.00;;;;;;5129599;27;20479;-74
2022/08/03 11:10:48;;;;;;;0.80;0.50;;;33.30;1.00;;;;;;5107562;27;20533;-75
2022/08/03 11:13:18;;;;;;;0.50;0.40;;;33.10;1.00;;;;;;5132950;27;20548;-74
2022/08/03 11:15:47;;;;;;;0.50;0.40;;;33.30;1.00;;;;;;5133229;27;20505;-77
2022/08/03 11:18:18;;;;;;;1.67;0.40;;;33.60;1.00;;;;;;5115433;27;20443;-75
2022/08/03 11:20:51;;;;;;;0.67;0.50;;;33.90;1.00;;;;;;5131570;27;20998;-75
2022/08/03 11:23:40;;;;;;;0.77;0.50;;;33.80;1.00;;;;;;5132743;27;20482;-75
2022/08/03 11:26:16;;;;;;;0.63;0.47;;;33.70;1.00;;;;;;5127834;27;20556;-76
2022/08/03 11:28:46;;;;;;;0.50;0.40;;;33.90;1.00;;;;;;5131157;27;20888;-76
2022/08/03 11:31:48;;;;;;;0.50;0.40;;;33.60;1.00;;;;;;5116266;27;20458;-77
2022/08/03 11:34:23;;;;;;;0.60;0.50;;;33.70;1.00;;;;;;5122860;27;20478;-77
2022/08/03 11:37:25;;;;;;;0.70;0.50;;;34.20;1.00;;;;;;5125613;27;20456;-76
2022/08/03 11:39:55;;;;;;;0.60;0.40;;;34.40;1.00;;;;;;5129858;27;20446;-75
2022/08/03 11:42:44;;;;;;;0.50;0.50;;;34.40;1.00;;;;;;5130506;27;20440;-76
2022/08/03 11:45:18;;;;;;;0.90;0.60;;;34.30;1.00;;;;;;5132074;27;20447;-76
2022/08/03 11:47:48;;;;;;;0.60;0.40;;;34.20;1.00;;;;;;5134831;27;20452;-75
2022/08/03 11:50:21;;;;;;;0.50;0.40;;;34.40;1.00;;;;;;5133886;27;20499;-76
2022/08/03 11:52:49;;;;;;;0.43;0.30;;;34.50;1.00;;;;;;5143488;27;20467;-76
2022/08/03 11:55:19;;;;;;;0.53;0.40;;;34.60;1.00;;;;;;5116850;27;20517;-76
2022/08/03 11:57:47;;;;;;;0.50;0.30;;;34.60;1.00;;;;;;5122567;27;20455;-76
2022/08/03 12:00:27;;;;;;;0.50;0.40;;;34.60;1.00;;;;;;5133602;27;20464;-75
2022/08/03 12:02:59;;;;;;;0.50;0.37;;;34.20;1.00;;;;;;5132993;27;20456;-75
2022/08/03 12:05:48;;;;;;;0.50;0.40;;;34.30;1.00;;;;;;5127510;27;20496;-76
2022/08/03 12:08:18;;;;;;;1.10;0.40;;;34.40;1.00;;;;;;5113480;28;20808;-75
2022/08/03 12:10:49;;;;;;;0.50;0.40;;;34.60;1.00;;;;;;5114519;28;20778;-77
2022/08/03 12:13:17;;;;;;;0.50;0.40;;;34.70;1.00;;;;;;5116192;27;20540;-75
2022/08/03 12:15:51;;;;;;;0.60;0.50;;;34.90;1.00;;;;;;5123490;27;20515;-75
2022/08/03 12:18:20;;;;;;;0.63;0.50;;;34.80;1.00;;;;;;5126369;27;20542;-74
2022/08/03 12:20:49;;;;;;;0.70;0.40;;;35.20;1.00;;;;;;5122983;27;20465;-75
2022/08/03 12:23:17;;;;;;;0.83;0.50;;;35.30;1.00;;;;;;5115081;28;20448;-75
2022/08/03 12:25:47;;;;;;;1.73;0.50;;;35.50;1.00;;;;;;5114326;28;20445;-75
2022/08/03 12:28:17;;;;;;;1.00;0.47;;;35.60;1.00;;;;;;5114472;28;20480;-75
2022/08/03 12:30:50;;;;;;;0.60;0.50;;;35.70;1.00;;;;;;5095356;28;20579;-75
2022/08/03 12:33:24;;;;;;;0.50;0.40;;;35.10;1.00;;;;;;5115129;28;20799;-75
2022/08/03 12:36:05;;;;;;;0.67;0.50;;;35.10;1.00;;;;;;5115010;28;20457;-75
2022/08/03 12:38:33;;;;;;;0.70;0.60;;;35.20;1.00;;;;;;5096339;28;20467;-74
2022/08/03 12:41:03;;;;;;;1.77;0.40;;;35.00;1.00;;;;;;5138296;27;20521;-73
2022/08/03 12:43:31;;;;;;;1.70;0.50;;;35.20;1.00;;;;;;5134257;27;20523;-72
2022/08/03 12:46:15;;;;;;;0.93;0.70;;;35.20;1.00;;;;;;5133533;28;20471;-73
2022/08/03 12:49:06;;;;;;;0.67;0.40;;;35.40;1.00;;;;;;5121794;27;20444;-74
2022/08/03 12:51:34;;;;;;;0.70;0.50;;;35.80;1.00;;;;;;5124869;27;20447;-74
2022/08/03 12:54:03;;;;;;;0.70;0.50;;;36.30;1.00;;;;;;5129704;27;20942;-74
2022/08/03 12:56:30;;;;;;;0.97;0.50;;;36.70;1.00;;;;;;5126795;27;20887;-74
2022/08/03 12:58:59;;;;;;;0.90;0.60;;;37.20;1.00;;;;;;5127468;27;20514;-75
2022/08/03 13:01:36;;;;;;;0.60;0.50;;;37.30;1.00;;;;;;5124801;27;20447;-76
2022/08/03 13:04:04;;;;;;;0.50;0.40;;;37.00;1.00;;;;;;5128831;27;20875;-75
2022/08/03 13:06:31;;;;;;;0.60;0.50;;;36.90;1.00;;;;;;5137375;27;20554;-74
2022/08/03 13:09:06;;;;;;;0.60;0.50;;;36.50;1.00;;;;;;5136994;27;20528;-74
2022/08/03 13:11:33;;;;;;;0.60;0.40;;;36.10;1.00;;;;;;5137152;27;20956;-74
2022/08/03 13:14:01;;;;;;;1.00;0.70;;;35.70;1.00;;;;;;5137303;27;21005;-74
2022/08/03 13:16:30;;;;;;;0.60;0.40;;;36.00;1.00;;;;;;5137467;27;20456;-74
2022/08/03 13:18:57;;;;;;;1.07;0.50;;;36.00;1.00;;;;;;5134786;27;20441;-74